sensor_id;sensor_type;location;lat;lon;timestamp;P1;durP1;ratioP1;P2;durP2;ratioP2
67164;SDS011;54093;50.014;19.984;2022-07-23T00:08:14;7.00;;;6.28;;
67164;SDS011;54093;50.014;19.984;2022-07-23T00:17:34;11.60;;;7.57;;
67164;SDS011;54093;50.014;19.984;2022-07-23T00:26:55;11.85;;;6.60;;
67164;SDS011;54093;50.014;19.984;2022-07-23T00:36:16;8.25;;;7.50;;
67164;SDS011;54093;50.014;19.984;2022-07-23T00:45:37;9.20;;;6.88;;
67164;SDS011;54093;50.014;19.984;2022-07-23T00:54:57;7.30;;;6.43;;
67164;SDS011;54093;50.014;19.984;2022-07-23T01:04:19;7.53;;;6.63;;
67164;SDS011;54093;50.014;19.984;2022-07-23T01:13:40;8.98;;;6.60;;
67164;SDS011;54093;50.014;19.984;2022-07-23T01:23:02;7.28;;;6.50;;
67164;SDS011;54093;50.014;19.984;2022-07-23T01:32:23;7.30;;;6.70;;
67164;SDS011;54093;50.014;19.984;2022-07-23T01:41:44;7.40;;;6.82;;
67164;SDS011;54093;50.014;19.984;2022-07-23T01:51:05;8.52;;;7.15;;
67164;SDS011;54093;50.014;19.984;2022-07-23T02:00:25;6.40;;;6.00;;
67164;SDS011;54093;50.014;19.984;2022-07-23T02:09:46;7.57;;;6.88;;
67164;SDS011;54093;50.014;19.984;2022-07-23T02:19:07;6.93;;;6.32;;
67164;SDS011;54093;50.014;19.984;2022-07-23T02:28:28;6.38;;;5.80;;
67164;SDS011;54093;50.014;19.984;2022-07-23T02:37:48;10.18;;;7.03;;
67164;SDS011;54093;50.014;19.984;2022-07-23T02:47:09;7.40;;;6.75;;
67164;SDS011;54093;50.014;19.984;2022-07-23T02:56:30;7.15;;;6.55;;
67164;SDS011;54093;50.014;19.984;2022-07-23T03:05:51;10.68;;;6.65;;
67164;SDS011;54093;50.014;19.984;2022-07-23T03:15:11;6.10;;;5.70;;
67164;SDS011;54093;50.014;19.984;2022-07-23T03:24:32;12.05;;;7.03;;
67164;SDS011;54093;50.014;19.984;2022-07-23T03:34:11;7.68;;;6.75;;
67164;SDS011;54093;50.014;19.984;2022-07-23T03:43:32;8.45;;;7.07;;
67164;SDS011;54093;50.014;19.984;2022-07-23T03:52:53;7.13;;;6.50;;
67164;SDS011;54093;50.014;19.984;2022-07-23T04:02:14;7.88;;;7.38;;
67164;SDS011;54093;50.014;19.984;2022-07-23T04:11:35;7.25;;;6.47;;
67164;SDS011;54093;50.014;19.984;2022-07-23T04:20:55;7.22;;;6.75;;
67164;SDS011;54093;50.014;19.984;2022-07-23T04:30:17;7.35;;;6.75;;
67164;SDS011;54093;50.014;19.984;2022-07-23T04:39:37;7.82;;;7.22;;
67164;SDS011;54093;50.014;19.984;2022-07-23T04:48:58;7.03;;;6.40;;
67164;SDS011;54093;50.014;19.984;2022-07-23T04:58:19;7.93;;;7.00;;
67164;SDS011;54093;50.014;19.984;2022-07-23T05:07:40;8.43;;;7.13;;
67164;SDS011;54093;50.014;19.984;2022-07-23T05:17:01;7.38;;;6.60;;
67164;SDS011;54093;50.014;19.984;2022-07-23T05:26:22;7.70;;;6.90;;
67164;SDS011;54093;50.014;19.984;2022-07-23T05:35:42;7.68;;;7.07;;
67164;SDS011;54093;50.014;19.984;2022-07-23T05:45:03;7.22;;;6.72;;
67164;SDS011;54093;50.014;19.984;2022-07-23T05:54:25;6.97;;;6.40;;
67164;SDS011;54093;50.014;19.984;2022-07-23T06:03:45;8.82;;;6.57;;
67164;SDS011;54093;50.014;19.984;2022-07-23T06:13:06;6.88;;;6.28;;
67164;SDS011;54093;50.014;19.984;2022-07-23T06:22:27;12.10;;;6.82;;
67164;SDS011;54093;50.014;19.984;2022-07-23T06:31:48;7.80;;;6.63;;
67164;SDS011;54093;50.014;19.984;2022-07-23T06:41:08;7.82;;;7.20;;
67164;SDS011;54093;50.014;19.984;2022-07-23T06:50:29;6.72;;;6.25;;
67164;SDS011;54093;50.014;19.984;2022-07-23T06:59:50;12.90;;;6.40;;
67164;SDS011;54093;50.014;19.984;2022-07-23T07:09:11;7.03;;;6.22;;
67164;SDS011;54093;50.014;19.984;2022-07-23T07:18:31;7.22;;;6.00;;
67164;SDS011;54093;50.014;19.984;2022-07-23T07:27:52;5.95;;;5.47;;
67164;SDS011;54093;50.014;19.984;2022-07-23T07:37:13;6.40;;;5.70;;
67164;SDS011;54093;50.014;19.984;2022-07-23T07:46:34;8.45;;;7.00;;
67164;SDS011;54093;50.014;19.984;2022-07-23T07:55:54;7.50;;;6.60;;
67164;SDS011;54093;50.014;19.984;2022-07-23T08:05:19;6.72;;;6.13;;
67164;SDS011;54093;50.014;19.984;2022-07-23T08:14:41;9.25;;;6.28;;
67164;SDS011;54093;50.014;19.984;2022-07-23T08:24:02;6.03;;;5.50;;
67164;SDS011;54093;50.014;19.984;2022-07-23T08:33:23;6.47;;;5.63;;
67164;SDS011;54093;50.014;19.984;2022-07-23T08:42:44;7.93;;;5.93;;
67164;SDS011;54093;50.014;19.984;2022-07-23T08:52:08;8.88;;;5.65;;
67164;SDS011;54093;50.014;19.984;2022-07-23T09:01:29;5.80;;;5.50;;
67164;SDS011;54093;50.014;19.984;2022-07-23T09:10:59;6.97;;;6.43;;
67164;SDS011;54093;50.014;19.984;2022-07-23T09:20:21;7.63;;;6.70;;
67164;SDS011;54093;50.014;19.984;2022-07-23T09:29:54;6.63;;;6.00;;
67164;SDS011;54093;50.014;19.984;2022-07-23T09:39:16;5.57;;;5.07;;
67164;SDS011;54093;50.014;19.984;2022-07-23T09:48:46;6.72;;;5.32;;
67164;SDS011;54093;50.014;19.984;2022-07-23T09:58:08;6.30;;;5.70;;
67164;SDS011;54093;50.014;19.984;2022-07-23T10:07:34;7.22;;;6.28;;
67164;SDS011;54093;50.014;19.984;2022-07-23T10:16:58;7.97;;;4.88;;
67164;SDS011;54093;50.014;19.984;2022-07-23T10:26:53;4.57;;;4.25;;
67164;SDS011;54093;50.014;19.984;2022-07-23T10:36:22;4.97;;;4.68;;
67164;SDS011;54093;50.014;19.984;2022-07-23T10:45:50;4.45;;;4.15;;
67164;SDS011;54093;50.014;19.984;2022-07-23T11:04:51;4.97;;;4.57;;
67164;SDS011;54093;50.014;19.984;2022-07-23T11:14:12;4.83;;;4.27;;
67164;SDS011;54093;50.014;19.984;2022-07-23T11:33:33;4.32;;;4.13;;
67164;SDS011;54093;50.014;19.984;2022-07-23T11:42:56;5.07;;;4.63;;
67164;SDS011;54093;50.014;19.984;2022-07-23T11:52:18;5.07;;;4.60;;
67164;SDS011;54093;50.014;19.984;2022-07-23T12:01:52;6.10;;;4.73;;
67164;SDS011;54093;50.014;19.984;2022-07-23T12:11:16;4.72;;;4.10;;
67164;SDS011;54093;50.014;19.984;2022-07-23T12:20:44;4.20;;;3.90;;
67164;SDS011;54093;50.014;19.984;2022-07-23T12:39:44;5.18;;;4.70;;
67164;SDS011;54093;50.014;19.984;2022-07-23T12:49:05;4.37;;;4.17;;
67164;SDS011;54093;50.014;19.984;2022-07-23T12:58:26;4.43;;;4.13;;
67164;SDS011;54093;50.014;19.984;2022-07-23T13:07:47;4.07;;;3.88;;
67164;SDS011;54093;50.014;19.984;2022-07-23T13:17:08;4.57;;;4.30;;
67164;SDS011;54093;50.014;19.984;2022-07-23T13:26:28;5.30;;;4.80;;
67164;SDS011;54093;50.014;19.984;2022-07-23T13:35:50;5.50;;;5.20;;
67164;SDS011;54093;50.014;19.984;2022-07-23T13:45:11;6.38;;;4.80;;
67164;SDS011;54093;50.014;19.984;2022-07-23T13:54:32;6.07;;;5.60;;
67164;SDS011;54093;50.014;19.984;2022-07-23T14:03:53;4.77;;;4.47;;
67164;SDS011;54093;50.014;19.984;2022-07-23T14:13:14;5.07;;;4.67;;
67164;SDS011;54093;50.014;19.984;2022-07-23T14:22:34;6.90;;;5.57;;
67164;SDS011;54093;50.014;19.984;2022-07-23T14:31:56;5.17;;;4.87;;
67164;SDS011;54093;50.014;19.984;2022-07-23T14:41:17;5.18;;;4.70;;
67164;SDS011;54093;50.014;19.984;2022-07-23T14:50:38;5.30;;;4.80;;
67164;SDS011;54093;50.014;19.984;2022-07-23T14:59:59;6.78;;;4.50;;
67164;SDS011;54093;50.014;19.984;2022-07-23T15:09:19;5.90;;;5.50;;
67164;SDS011;54093;50.014;19.984;2022-07-23T15:18:41;24.20;;;5.80;;
67164;SDS011;54093;50.014;19.984;2022-07-23T15:28:01;15.30;;;6.07;;
67164;SDS011;54093;50.014;19.984;2022-07-23T15:37:22;6.95;;;6.35;;
67164;SDS011;54093;50.014;19.984;2022-07-23T15:46:43;6.68;;;6.18;;
67164;SDS011;54093;50.014;19.984;2022-07-23T15:56:05;5.95;;;5.40;;
67164;SDS011;54093;50.014;19.984;2022-07-23T16:05:27;8.05;;;7.28;;
67164;SDS011;54093;50.014;19.984;2022-07-23T16:14:47;9.25;;;7.68;;
67164;SDS011;54093;50.014;19.984;2022-07-23T16:24:08;12.55;;;9.57;;
67164;SDS011;54093;50.014;19.984;2022-07-23T16:33:29;9.32;;;8.32;;
67164;SDS011;54093;50.014;19.984;2022-07-23T16:42:50;8.20;;;7.70;;
67164;SDS011;54093;50.014;19.984;2022-07-23T16:52:11;8.38;;;7.57;;
67164;SDS011;54093;50.014;19.984;2022-07-23T17:01:31;8.52;;;7.60;;
67164;SDS011;54093;50.014;19.984;2022-07-23T17:10:52;9.93;;;8.15;;
67164;SDS011;54093;50.014;19.984;2022-07-23T17:20:13;9.50;;;8.70;;
67164;SDS011;54093;50.014;19.984;2022-07-23T17:29:34;9.00;;;8.07;;
67164;SDS011;54093;50.014;19.984;2022-07-23T17:38:55;5.63;;;5.32;;
67164;SDS011;54093;50.014;19.984;2022-07-23T17:48:15;7.00;;;6.30;;
67164;SDS011;54093;50.014;19.984;2022-07-23T17:57:36;5.93;;;5.55;;
67164;SDS011;54093;50.014;19.984;2022-07-23T18:06:57;6.13;;;5.40;;
67164;SDS011;54093;50.014;19.984;2022-07-23T18:16:18;6.47;;;5.93;;
67164;SDS011;54093;50.014;19.984;2022-07-23T18:25:38;10.70;;;6.28;;
67164;SDS011;54093;50.014;19.984;2022-07-23T18:34:59;6.78;;;6.30;;
67164;SDS011;54093;50.014;19.984;2022-07-23T18:44:20;8.48;;;7.80;;
67164;SDS011;54093;50.014;19.984;2022-07-23T18:53:41;11.40;;;10.20;;
67164;SDS011;54093;50.014;19.984;2022-07-23T19:03:02;15.18;;;9.30;;
67164;SDS011;54093;50.014;19.984;2022-07-23T19:12:23;16.40;;;9.50;;
67164;SDS011;54093;50.014;19.984;2022-07-23T19:21:44;11.98;;;10.82;;
67164;SDS011;54093;50.014;19.984;2022-07-23T19:31:05;11.77;;;9.18;;
67164;SDS011;54093;50.014;19.984;2022-07-23T19:40:25;12.15;;;9.25;;
67164;SDS011;54093;50.014;19.984;2022-07-23T19:49:46;10.57;;;9.50;;
67164;SDS011;54093;50.014;19.984;2022-07-23T19:59:07;10.65;;;9.20;;
67164;SDS011;54093;50.014;19.984;2022-07-23T20:08:28;20.30;;;15.73;;
67164;SDS011;54093;50.014;19.984;2022-07-23T20:17:49;10.02;;;9.18;;
67164;SDS011;54093;50.014;19.984;2022-07-23T20:27:09;11.88;;;10.77;;
67164;SDS011;54093;50.014;19.984;2022-07-23T20:36:30;10.93;;;10.13;;
67164;SDS011;54093;50.014;19.984;2022-07-23T20:45:51;12.35;;;11.15;;
67164;SDS011;54093;50.014;19.984;2022-07-23T20:55:12;12.02;;;10.90;;
67164;SDS011;54093;50.014;19.984;2022-07-23T21:04:33;13.98;;;10.18;;
67164;SDS011;54093;50.014;19.984;2022-07-23T21:13:54;10.13;;;9.30;;
67164;SDS011;54093;50.014;19.984;2022-07-23T21:23:15;16.75;;;10.93;;
67164;SDS011;54093;50.014;19.984;2022-07-23T21:32:36;13.02;;;11.93;;
67164;SDS011;54093;50.014;19.984;2022-07-23T21:41:58;12.10;;;10.88;;
67164;SDS011;54093;50.014;19.984;2022-07-23T21:51:18;12.55;;;11.52;;
67164;SDS011;54093;50.014;19.984;2022-07-23T22:00:39;16.30;;;14.05;;
67164;SDS011;54093;50.014;19.984;2022-07-23T22:10:01;13.82;;;12.23;;
67164;SDS011;54093;50.014;19.984;2022-07-23T22:19:22;15.45;;;14.05;;
67164;SDS011;54093;50.014;19.984;2022-07-23T22:28:42;14.60;;;13.23;;
67164;SDS011;54093;50.014;19.984;2022-07-23T22:38:03;15.98;;;13.18;;
67164;SDS011;54093;50.014;19.984;2022-07-23T22:47:24;13.60;;;12.10;;
67164;SDS011;54093;50.014;19.984;2022-07-23T22:56:45;11.73;;;10.63;;
67164;SDS011;54093;50.014;19.984;2022-07-23T23:06:05;10.63;;;9.45;;
67164;SDS011;54093;50.014;19.984;2022-07-23T23:15:26;10.90;;;9.07;;
67164;SDS011;54093;50.014;19.984;2022-07-23T23:24:47;11.25;;;10.00;;
67164;SDS011;54093;50.014;19.984;2022-07-23T23:34:08;9.75;;;8.85;;
67164;SDS011;54093;50.014;19.984;2022-07-23T23:43:29;15.70;;;9.77;;
67164;SDS011;54093;50.014;19.984;2022-07-23T23:52:50;17.10;;;12.93;;
